Terminal Aerodrome Forecast
Issued by NWS Charleston, WV

Home | Current Version | Previous Version | Text Only | Print | Product List | Glossary On
Versions: 1 2 3 4 5 6 7 8 9 10 11 12 13 14 15 16 17 18 19 20 21 22
000
FTUS41 KRLX 190200 AAA
TAFEKN
TAF AMD
KEKN 190212Z 1902/1924 VRB03KT P6SM SKC
     FM190800 13007KT P6SM BKN070
     FM191300 15012G20KT P6SM BKN060
     FM191700 15012G22KT 6SM -SHRA BKN030 OVC060=

USA.gov is the U.S. government's official web portal to all federal, state and local government web resources and services.